Time;durP1;ratioP1;P1;durP2;ratioP2;P2;SDS_P1;SDS_P2;PMS_P1;PMS_P2;Temp;Humidity;BMP_temperature;BMP_pressure;BME280_temperature;BME280_humidity;BME280_pressure;Samples;Min_cycle;Max_cycle;Signal;HPM_P1;HPM_P2
2022/10/04 00:01:07;548905.00;1.83;946.07;60402.00;0.20;105.17;;;;;16.00;1.00;;;;;;2264157;61;1031;-86
2022/10/04 00:03:42;498627.00;1.66;859.46;0.00;0.00;0.62;;;;;16.00;1.00;;;;;;2264120;61;1435;-85
2022/10/04 00:06:17;595326.00;1.98;1026.15;0.00;0.00;0.62;;;;;16.00;1.00;;;;;;2264175;61;1097;-85
2022/10/04 00:08:51;322582.00;1.08;556.74;0.00;0.00;0.62;;;;;16.00;1.00;;;;;;2264212;61;1101;-86
2022/10/04 00:11:23;520663.00;1.74;897.41;0.00;0.00;0.62;;;;;15.70;1.00;;;;;;2264119;61;1023;-85
2022/10/04 00:13:55;444815.00;1.48;766.86;0.00;0.00;0.62;;;;;15.60;1.00;;;;;;2264164;61;1345;-85
2022/10/04 00:16:26;520556.00;1.74;897.22;0.00;0.00;0.62;;;;;15.20;1.00;;;;;;2264792;61;1983;-84
2022/10/04 00:19:20;676590.00;2.26;1166.67;54632.00;0.18;95.20;;;;;15.10;1.00;;;;;;2264827;61;886;-85
2022/10/04 00:22:19;469137.00;1.56;808.70;0.00;0.00;0.62;;;;;15.60;1.00;;;;;;2264808;61;1111;-83
2022/10/04 00:25:17;270795.00;0.90;467.71;0.00;0.00;0.62;;;;;15.80;1.00;;;;;;2264745;61;1251;-84
2022/10/04 00:28:26;411680.00;1.37;709.89;0.00;0.00;0.62;;;;;15.10;1.00;;;;;;2264805;61;1758;-85
2022/10/04 00:31:23;573969.00;1.91;989.29;8469.00;0.03;15.30;;;;;14.60;1.00;;;;;;2264786;61;1144;-86
2022/10/04 00:33:52;554234.00;1.85;955.26;77467.00;0.26;134.66;;;;;14.30;1.00;;;;;;2264810;61;1386;-86
2022/10/04 00:36:57;455765.00;1.52;785.70;0.00;0.00;0.62;;;;;14.10;1.00;;;;;;2264727;61;1998;-86
2022/10/04 00:39:42;758726.00;2.53;1309.23;73806.00;0.25;128.34;;;;;13.60;1.00;;;;;;2264838;61;1087;-85
2022/10/04 00:42:36;646453.00;2.15;1114.50;10898.00;0.04;19.50;;;;;13.20;1.00;;;;;;2264562;61;1103;-84
2022/10/04 00:45:12;769734.00;2.57;1328.39;0.00;0.00;0.62;;;;;12.80;1.00;;;;;;2264759;61;1167;-84
2022/10/04 00:48:00;787166.00;2.62;1358.75;0.00;0.00;0.62;;;;;12.80;1.00;;;;;;2264773;61;1092;-85
2022/10/04 00:50:34;498759.00;1.66;859.69;0.00;0.00;0.62;;;;;13.00;1.00;;;;;;2264751;61;1197;-85
2022/10/04 00:53:13;434574.00;1.45;749.25;0.00;0.00;0.62;;;;;13.30;1.00;;;;;;2264750;61;1462;-85
2022/10/04 00:55:50;541837.00;1.81;933.89;0.00;0.00;0.62;;;;;13.10;1.00;;;;;;2264627;61;1118;-85
2022/10/04 00:58:24;474150.00;1.58;817.33;0.00;0.00;0.62;;;;;13.50;1.00;;;;;;2264729;61;1016;-84
2022/10/04 01:00:53;371301.00;1.24;640.47;0.00;0.00;0.62;;;;;13.40;1.00;;;;;;2264706;61;960;-84
2022/10/04 01:03:30;880506.00;2.94;1521.91;0.00;0.00;0.62;;;;;13.40;1.00;;;;;;2264697;61;1386;-84
2022/10/04 01:06:02;691335.00;2.30;1192.22;0.00;0.00;0.62;;;;;13.30;1.00;;;;;;2264717;61;1105;-84
2022/10/04 01:08:34;587199.00;1.96;1012.12;0.00;0.00;0.62;;;;;13.20;1.00;;;;;;2264700;61;1084;-85
2022/10/04 01:11:06;555632.00;1.85;957.67;0.00;0.00;0.62;;;;;13.10;1.00;;;;;;2264712;61;1014;-85
2022/10/04 01:13:40;524554.00;1.75;904.11;0.00;0.00;0.62;;;;;13.10;1.00;;;;;;2264634;61;1350;-85
2022/10/04 01:16:17;558594.00;1.86;962.78;0.00;0.00;0.62;;;;;13.10;1.00;;;;;;2264599;61;1916;-84
2022/10/04 01:18:44;354018.00;1.18;610.77;0.00;0.00;0.62;;;;;13.90;1.00;;;;;;2264629;61;962;-84
2022/10/04 01:21:27;869155.00;2.90;1502.01;0.00;0.00;0.62;;;;;13.90;1.00;;;;;;2264561;61;1031;-85
2022/10/04 01:24:16;389849.00;1.30;672.36;0.00;0.00;0.62;;;;;13.50;1.00;;;;;;2264592;61;1368;-85
2022/10/04 01:26:45;816503.00;2.72;1409.92;0.00;0.00;0.62;;;;;13.70;1.00;;;;;;2264576;61;1134;-85
2022/10/04 01:29:16;958983.00;3.20;1659.96;5334.00;0.02;9.86;;;;;14.10;1.00;;;;;;2264619;61;1729;-85
2022/10/04 01:31:45;650747.00;2.17;1121.93;0.00;0.00;0.62;;;;;13.90;1.00;;;;;;2264590;61;1550;-85
2022/10/04 01:34:15;646158.00;2.15;1113.99;0.00;0.00;0.62;;;;;13.70;1.00;;;;;;2264584;61;1299;-85
2022/10/04 01:36:44;1025739.00;3.42;1778.11;37582.00;0.13;65.70;;;;;13.80;1.00;;;;;;2264560;61;1911;-86
2022/10/04 01:39:12;360768.00;1.20;622.37;0.00;0.00;0.62;;;;;14.00;1.00;;;;;;2264592;61;1039;-84
2022/10/04 01:41:54;1021269.00;3.40;1770.18;0.00;0.00;0.62;;;;;14.30;1.00;;;;;;2264581;61;1231;-84
2022/10/04 01:44:31;435972.00;1.45;751.66;0.00;0.00;0.62;;;;;14.50;1.00;;;;;;2264500;61;1451;-84
2022/10/04 01:47:03;337682.00;1.13;582.69;0.00;0.00;0.62;;;;;14.40;1.00;;;;;;2264507;61;1032;-85
2022/10/04 01:49:34;473655.00;1.58;816.48;0.00;0.00;0.62;;;;;14.60;1.00;;;;;;2264462;61;959;-85
2022/10/04 01:52:07;378519.00;1.26;652.88;0.00;0.00;0.62;;;;;14.60;1.00;;;;;;2264562;61;1074;-85
2022/10/04 01:54:37;761447.00;2.54;1313.97;118424.00;0.39;205.36;;;;;14.00;1.00;;;;;;2264492;61;1487;-85
2022/10/04 01:57:15;749827.00;2.50;1293.76;75915.00;0.25;131.98;;;;;13.20;1.00;;;;;;2264510;61;1994;-85
2022/10/04 01:59:49;568792.00;1.90;980.36;0.00;0.00;0.62;;;;;12.80;1.00;;;;;;2264409;61;1150;-84
2022/10/04 02:02:23;476383.00;1.59;821.17;0.00;0.00;0.62;;;;;12.50;1.00;;;;;;2264489;61;1024;-84
2022/10/04 02:04:55;385192.00;1.28;664.35;0.00;0.00;0.62;;;;;12.30;1.00;;;;;;2264496;61;1529;-84
2022/10/04 02:07:25;580530.00;1.94;1000.61;0.00;0.00;0.62;;;;;11.80;1.00;;;;;;2264539;61;1119;-84
2022/10/04 02:09:58;451183.00;1.50;777.82;0.00;0.00;0.62;;;;;11.70;1.00;;;;;;2264476;61;1010;-84
2022/10/04 02:12:30;739928.00;2.47;1276.55;0.00;0.00;0.62;;;;;12.10;1.00;;;;;;2264452;61;1135;-84
2022/10/04 02:15:01;375906.00;1.25;648.39;0.00;0.00;0.62;;;;;12.60;1.00;;;;;;2264222;61;1482;-84
2022/10/04 02:17:31;506004.00;1.69;872.16;0.00;0.00;0.62;;;;;12.20;1.00;;;;;;2264387;61;1981;-84
2022/10/04 02:20:00;455281.00;1.52;784.87;0.00;0.00;0.62;;;;;12.80;1.00;;;;;;2264478;61;912;-85
2022/10/04 02:22:27;487257.00;1.62;839.89;0.00;0.00;0.62;;;;;13.50;1.40;;;;;;2264461;61;1071;-85
2022/10/04 02:24:57;561531.00;1.87;967.84;0.00;0.00;0.62;;;;;13.90;1.00;;;;;;2264363;61;1815;-84
2022/10/04 02:27:30;469120.00;1.56;808.68;0.00;0.00;0.62;;;;;14.10;1.00;;;;;;2264435;61;1054;-84
2022/10/04 02:30:01;474469.00;1.58;817.88;0.00;0.00;0.62;;;;;14.30;1.00;;;;;;2264392;61;1110;-84
2022/10/04 02:35:16;462359.00;1.54;797.04;0.00;0.00;0.62;;;;;14.40;1.00;;;;;;2264468;61;657;-85
2022/10/04 02:37:43;411346.00;1.37;709.31;0.00;0.00;0.62;;;;;14.40;1.00;;;;;;2264128;61;1990;-85
2022/10/04 02:40:14;442921.00;1.48;763.61;0.00;0.00;0.62;;;;;14.30;1.00;;;;;;2264383;61;1146;-85
2022/10/04 02:42:49;320217.00;1.07;552.67;0.00;0.00;0.62;;;;;14.40;1.00;;;;;;2264353;61;1294;-85
2022/10/04 02:45:24;506934.00;1.69;873.76;60864.00;0.20;105.97;;;;;14.40;1.00;;;;;;2264358;61;1154;-85
2022/10/04 02:47:58;619012.00;2.06;1067.06;11488.00;0.04;20.53;;;;;14.20;1.00;;;;;;2264390;61;1197;-84
2022/10/04 02:50:31;527678.00;1.76;909.49;0.00;0.00;0.62;;;;;13.70;1.00;;;;;;2264382;61;1115;-84
2022/10/04 02:53:04;340352.00;1.13;587.28;0.00;0.00;0.62;;;;;13.50;1.00;;;;;;2264302;61;1464;-85
2022/10/04 02:55:32;507954.00;1.69;875.52;0.00;0.00;0.62;;;;;13.20;1.00;;;;;;2264267;61;1111;-85
2022/10/04 02:58:01;630733.00;2.10;1087.32;0.00;0.00;0.62;;;;;13.00;1.00;;;;;;2264262;61;2003;-85
2022/10/04 03:00:30;648545.00;2.16;1118.12;0.00;0.00;0.62;;;;;12.80;1.00;;;;;;2264316;61;1115;-87
2022/10/04 03:03:14;651723.00;2.17;1123.62;0.00;0.00;0.62;;;;;12.90;1.00;;;;;;2264322;61;1362;-85
2022/10/04 03:05:43;579053.00;1.93;998.06;0.00;0.00;0.62;;;;;13.00;1.00;;;;;;2264337;61;1017;-83
2022/10/04 03:08:10;539102.00;1.80;929.18;23528.00;0.08;41.38;;;;;13.10;1.00;;;;;;2264301;61;1076;-84
2022/10/04 03:10:38;452363.00;1.51;779.85;0.00;0.00;0.62;;;;;13.20;1.00;;;;;;2264240;61;1736;-83
2022/10/04 03:13:06;401387.00;1.34;692.19;0.00;0.00;0.62;;;;;13.60;1.00;;;;;;2264342;61;1355;-84
2022/10/04 03:15:33;418697.00;1.40;721.95;0.00;0.00;0.62;;;;;14.10;1.00;;;;;;2264293;61;1113;-85
2022/10/04 03:18:01;518324.00;1.73;893.38;0.00;0.00;0.62;;;;;13.60;1.00;;;;;;2264280;61;1995;-85
2022/10/04 03:20:28;407240.00;1.36;702.25;0.00;0.00;0.62;;;;;12.90;1.00;;;;;;2264244;61;1100;-85
2022/10/04 03:22:57;346048.00;1.15;597.07;0.00;0.00;0.62;;;;;13.20;1.00;;;;;;2264260;61;1280;-84
2022/10/04 03:25:29;546514.00;1.82;941.95;0.00;0.00;0.62;;;;;13.50;1.00;;;;;;2264278;61;1040;-85
2022/10/04 03:28:01;379355.00;1.26;654.32;0.00;0.00;0.62;;;;;13.70;1.00;;;;;;2264223;61;1071;-84
2022/10/04 03:30:31;640066.00;2.13;1103.45;47254.00;0.16;82.44;;;;;13.60;1.00;;;;;;2264266;61;1159;-85
2022/10/04 03:32:59;606910.00;2.02;1046.15;0.00;0.00;0.62;;;;;13.50;1.00;;;;;;2264077;61;1262;-84
2022/10/04 03:35:33;564563.00;1.88;973.07;0.00;0.00;0.62;;;;;13.80;1.00;;;;;;2264182;61;1151;-84
2022/10/04 03:38:01;516760.00;1.72;890.68;0.00;0.00;0.62;;;;;14.40;1.00;;;;;;2264135;61;1914;-85
2022/10/04 03:40:32;904765.00;3.02;1564.49;24379.00;0.08;42.85;;;;;14.80;1.00;;;;;;2264200;61;1053;-85
2022/10/04 03:43:03;874429.00;2.91;1511.25;7781.00;0.03;14.10;;;;;14.80;1.00;;;;;;2264116;61;1423;-85
2022/10/04 03:45:34;1099415.00;3.66;1909.38;0.00;0.00;0.62;;;;;14.90;1.00;;;;;;2264123;61;1521;-85
2022/10/04 03:48:06;444482.00;1.48;766.29;0.00;0.00;0.62;;;;;14.70;1.00;;;;;;2264218;61;1040;-84
2022/10/04 03:50:37;494217.00;1.65;851.87;0.00;0.00;0.62;;;;;14.70;1.00;;;;;;2264882;61;1123;-85
2022/10/04 03:53:11;457859.00;1.53;789.30;0.00;0.00;0.62;;;;;14.60;1.00;;;;;;2264887;61;1459;-87
2022/10/04 03:55:43;565369.00;1.88;974.46;0.00;0.00;0.62;;;;;14.50;1.00;;;;;;2264675;61;1143;-85
2022/10/04 03:58:12;602541.00;2.01;1038.61;0.00;0.00;0.62;;;;;14.90;1.00;;;;;;2264805;61;2006;-86
2022/10/04 04:00:46;734021.00;2.45;1266.29;0.00;0.00;0.62;;;;;14.80;1.00;;;;;;2264856;61;1103;-86
2022/10/04 04:03:19;551264.00;1.84;950.14;0.00;0.00;0.62;;;;;15.00;1.00;;;;;;2264898;61;1481;-87
2022/10/04 04:05:51;510621.00;1.70;880.11;0.00;0.00;0.62;;;;;15.10;1.00;;;;;;2264884;61;1004;-86
2022/10/04 04:08:29;560159.00;1.87;965.47;0.00;0.00;0.62;;;;;15.20;1.00;;;;;;2264861;61;1165;-87
2022/10/04 04:10:59;564670.00;1.88;973.25;8891.00;0.03;16.03;;;;;14.70;1.00;;;;;;2264800;61;1125;-87
2022/10/04 04:13:31;770915.00;2.57;1330.45;0.00;0.00;0.62;;;;;14.80;1.00;;;;;;2264780;61;1711;-87
2022/10/04 04:16:02;670626.00;2.24;1156.34;0.00;0.00;0.62;;;;;14.90;1.00;;;;;;2264797;61;1053;-90
2022/10/04 04:18:34;474919.00;1.58;818.65;0.00;0.00;0.62;;;;;15.10;1.00;;;;;;2264737;61;2018;-86
2022/10/04 04:21:05;601564.00;2.01;1036.92;0.00;0.00;0.62;;;;;15.00;1.00;;;;;;2264817;61;1104;-86
2022/10/04 04:23:35;622720.00;2.08;1073.47;0.00;0.00;0.62;;;;;14.70;1.00;;;;;;2264758;61;1456;-86
2022/10/04 04:26:22;442928.00;1.48;763.62;0.00;0.00;0.62;;;;;14.40;1.00;;;;;;2264697;61;1032;-86
2022/10/04 04:28:53;775586.00;2.59;1338.58;0.00;0.00;0.62;;;;;14.30;1.00;;;;;;2264801;61;1131;-86
2022/10/04 04:31:26;574489.00;1.91;990.19;0.00;0.00;0.62;;;;;14.40;1.00;;;;;;2264649;61;954;-84
2022/10/04 04:33:59;746360.00;2.49;1287.73;61886.00;0.21;107.74;;;;;14.40;1.00;;;;;;2264740;61;1686;-85
2022/10/04 04:36:27;601044.00;2.00;1036.02;0.00;0.00;0.62;;;;;14.60;1.00;;;;;;2264785;61;1086;-87
2022/10/04 04:41:50;525771.00;1.75;906.21;0.00;0.00;0.62;;;;;14.30;1.00;;;;;;2264859;61;695;-86
2022/10/04 04:44:19;559041.00;1.86;963.55;6828.00;0.02;12.45;;;;;14.50;1.00;;;;;;2264652;61;1286;-86
2022/10/04 04:46:48;714015.00;2.38;1231.55;22372.00;0.07;39.38;;;;;14.50;1.00;;;;;;2264737;61;1602;-88
2022/10/04 04:49:18;1538012.00;5.13;2714.85;220846.00;0.74;381.80;;;;;14.50;1.00;;;;;;2264735;61;1064;-86
2022/10/04 04:51:50;738562.00;2.46;1274.18;0.00;0.00;0.62;;;;;14.40;1.00;;;;;;2264726;61;1064;-86
2022/10/04 04:54:20;683901.00;2.28;1179.33;0.00;0.00;0.62;;;;;14.40;1.00;;;;;;2264708;61;1462;-87
2022/10/04 04:56:50;488665.00;1.63;842.31;0.00;0.00;0.62;;;;;14.60;1.00;;;;;;2264604;61;1111;-86
2022/10/04 04:59:20;696788.00;2.32;1201.67;0.00;0.00;0.62;;;;;14.70;1.00;;;;;;2264665;61;2021;-86
2022/10/04 05:01:49;642024.00;2.14;1106.84;0.00;0.00;0.62;;;;;14.60;1.00;;;;;;2264423;61;1008;-87
2022/10/04 05:04:20;571876.00;1.91;985.68;0.00;0.00;0.62;;;;;14.80;1.00;;;;;;2264609;61;1371;-85
2022/10/04 05:06:49;508941.00;1.70;877.22;0.00;0.00;0.62;;;;;14.70;1.00;;;;;;2264671;61;1053;-86
2022/10/04 05:09:28;670759.00;2.24;1156.57;0.00;0.00;0.62;;;;;13.70;1.00;;;;;;2264673;61;1106;-87
2022/10/04 05:12:02;496926.00;1.66;856.53;0.00;0.00;0.62;;;;;12.80;1.00;;;;;;2264686;61;942;-86
2022/10/04 05:14:30;539317.00;1.80;929.55;0.00;0.00;0.62;;;;;13.00;1.00;;;;;;2264655;61;1366;-85
2022/10/04 05:16:59;531488.00;1.77;916.06;0.00;0.00;0.62;;;;;13.30;1.00;;;;;;2264675;61;1039;-86
2022/10/04 05:19:31;650652.00;2.17;1121.76;0.00;0.00;0.62;;;;;12.80;1.00;;;;;;2264491;61;2021;-86
2022/10/04 05:22:00;882794.00;2.94;1525.92;46180.00;0.15;80.58;;;;;12.70;1.00;;;;;;2264596;61;1052;-86
2022/10/04 05:24:31;839056.00;2.80;1449.32;0.00;0.00;0.62;;;;;13.30;2.20;;;;;;2264568;61;1438;-85
2022/10/04 05:27:01;851677.00;2.84;1471.40;54554.00;0.18;95.06;;;;;13.60;1.00;;;;;;2264606;61;1109;-86
2022/10/04 05:29:32;426279.00;1.42;734.99;0.00;0.00;0.62;;;;;13.70;1.00;;;;;;2264595;61;1147;-86
2022/10/04 05:32:22;121901384.00;406.34;73383616.00;0.00;0.00;0.62;;;;;13.70;1.00;;;;;;2264526;61;1126;-86
2022/10/04 05:34:50;636627.00;2.12;1097.51;0.00;0.00;0.62;;;;;13.80;1.00;;;;;;2264347;61;1402;-86
2022/10/04 05:37:41;747570.00;2.49;1289.83;0.00;0.00;0.62;;;;;14.00;1.00;;;;;;2264359;61;1924;-86
2022/10/04 05:40:29;534876.00;1.78;921.89;0.00;0.00;0.62;;;;;14.00;1.00;;;;;;2264286;61;1096;-85
2022/10/04 05:42:58;563602.00;1.88;971.41;0.00;0.00;0.62;;;;;14.30;1.00;;;;;;2264589;61;1349;-86
2022/10/04 05:45:27;472143.00;1.57;813.88;0.00;0.00;0.62;;;;;14.20;1.00;;;;;;2264466;61;1566;-85
2022/10/04 05:47:57;557230.00;1.86;960.42;0.00;0.00;0.62;;;;;14.40;1.00;;;;;;2264542;61;1156;-85
2022/10/04 05:50:31;458813.00;1.53;790.94;0.00;0.00;0.62;;;;;14.40;1.00;;;;;;2264577;61;1240;-85
2022/10/04 05:53:18;648540.00;2.16;1118.11;0.00;0.00;0.62;;;;;14.10;1.00;;;;;;2264342;61;1468;-84
2022/10/04 05:55:55;700248.00;2.33;1207.67;0.00;0.00;0.62;;;;;14.00;1.00;;;;;;2264462;61;1065;-87
2022/10/04 05:58:48;593657.00;1.98;1023.27;0.00;0.00;0.62;;;;;14.50;1.00;;;;;;2264494;61;2001;-87
2022/10/04 06:01:30;562064.00;1.87;968.76;47230.00;0.16;82.40;;;;;14.60;1.00;;;;;;2264474;61;953;-87
2022/10/04 06:04:25;697388.00;2.32;1202.71;0.00;0.00;0.62;;;;;14.60;1.00;;;;;;2264520;61;1372;-86
2022/10/04 06:06:59;826682.00;2.76;1427.70;0.00;0.00;0.62;;;;;14.80;1.00;;;;;;2264438;61;997;-87
2022/10/04 06:09:47;691859.00;2.31;1193.12;58467.00;0.19;101.83;;;;;14.80;1.00;;;;;;2264405;61;1115;-87
2022/10/04 06:12:29;597834.00;1.99;1030.48;0.00;0.00;0.62;;;;;14.60;1.00;;;;;;2264145;61;1496;-87
2022/10/04 06:15:24;500027.00;1.67;861.87;316.00;0.00;1.17;;;;;14.60;1.00;;;;;;2264458;61;1415;-87
2022/10/04 06:18:08;588754.00;1.96;1014.81;0.00;0.00;0.62;;;;;14.80;1.00;;;;;;2264292;61;1921;-87
2022/10/04 06:20:58;498742.00;1.66;859.66;0.00;0.00;0.62;;;;;14.20;1.00;;;;;;2264430;61;1612;-87
2022/10/04 06:23:28;717068.00;2.39;1236.85;36609.00;0.12;64.02;;;;;14.30;1.00;;;;;;2264305;61;1338;-85
2022/10/04 06:25:58;639785.00;2.13;1102.97;0.00;0.00;0.62;;;;;14.50;1.00;;;;;;2264493;61;1053;-87
2022/10/04 06:28:31;721728.00;2.41;1244.94;0.00;0.00;0.62;;;;;14.50;1.00;;;;;;2264327;61;1016;-86
2022/10/04 06:31:29;612623.00;2.04;1056.02;0.00;0.00;0.62;;;;;14.30;1.00;;;;;;2264316;61;1491;-87
2022/10/04 06:34:29;550271.00;1.83;948.43;0.00;0.00;0.62;;;;;14.40;1.00;;;;;;2264389;61;1371;-87
2022/10/04 06:37:19;535398.00;1.78;922.79;0.00;0.00;0.62;;;;;14.00;1.00;;;;;;2261045;61;1356;-86
2022/10/04 06:40:20;1912724.00;6.38;3446.63;474114.00;1.58;817.27;;;;;13.10;1.00;;;;;;2264315;61;2045;-86
2022/10/04 06:43:05;535865.00;1.79;923.60;0.00;0.00;0.62;;;;;12.90;1.00;;;;;;2264301;61;1630;-87
2022/10/04 06:45:48;642796.00;2.14;1108.17;10497.00;0.03;18.81;;;;;13.20;1.00;;;;;;2264078;61;1437;-88
2022/10/04 06:48:40;698912.00;2.33;1205.35;0.00;0.00;0.62;;;;;13.90;1.00;;;;;;2264371;61;988;-87
2022/10/04 06:51:18;601623.00;2.01;1037.02;75413.00;0.25;131.11;;;;;13.60;1.00;;;;;;2264311;61;1078;-86
2022/10/04 06:53:59;395169.00;1.32;681.50;0.00;0.00;0.62;;;;;13.70;1.00;;;;;;2264336;61;1361;-88
2022/10/04 06:56:40;626260.00;2.09;1079.58;0.00;0.00;0.62;;;;;14.40;1.00;;;;;;2264226;61;1536;-88
2022/10/04 06:59:31;568689.00;1.90;980.19;0.00;0.00;0.62;;;;;14.80;1.00;;;;;;2264407;61;1966;-88
2022/10/04 07:02:04;503005.00;1.68;867.00;0.00;0.00;0.62;;;;;15.10;1.00;;;;;;2264318;61;1576;-87
2022/10/04 07:04:39;562821.00;1.88;970.07;3780.00;0.01;7.17;;;;;15.40;1.00;;;;;;2264335;61;1350;-87
2022/10/04 07:07:33;472714.00;1.58;814.86;0.00;0.00;0.62;;;;;15.30;1.00;;;;;;2264327;61;1186;-87
2022/10/04 07:10:21;542673.00;1.81;935.33;0.00;0.00;0.62;;;;;15.30;1.00;;;;;;2264312;61;1750;-87
2022/10/04 07:13:01;506668.00;1.69;873.30;0.00;0.00;0.62;;;;;15.30;1.00;;;;;;2264258;61;1385;-87
2022/10/04 07:15:35;561030.00;1.87;966.98;0.00;0.00;0.62;;;;;15.60;1.00;;;;;;2264345;61;1313;-87
2022/10/04 07:18:12;923661.00;3.08;1597.72;0.00;0.00;0.62;;;;;15.30;1.00;;;;;;2264162;61;1928;-86
2022/10/04 07:20:40;730496.00;2.43;1260.16;0.00;0.00;0.62;;;;;14.70;1.00;;;;;;2264244;61;1551;-87
2022/10/04 07:23:15;710456.00;2.37;1225.38;0.00;0.00;0.62;;;;;14.80;1.00;;;;;;2264108;61;1460;-88
2022/10/04 07:25:49;795712.00;2.65;1373.65;0.00;0.00;0.62;;;;;15.10;1.00;;;;;;2264303;61;1088;-88
2022/10/04 07:31:13;483551.00;1.61;833.51;0.00;0.00;0.62;;;;;14.90;1.00;;;;;;2264328;61;712;-88
2022/10/04 07:33:47;531537.00;1.77;916.14;0.00;0.00;0.62;;;;;15.10;1.00;;;;;;2264127;61;1595;-86
2022/10/04 07:36:22;652177.00;2.17;1124.40;0.00;0.00;0.62;;;;;15.30;1.00;;;;;;2264232;61;1197;-87
2022/10/04 07:38:53;453428.00;1.51;781.68;0.00;0.00;0.62;;;;;15.30;1.00;;;;;;2264249;61;2008;-86
2022/10/04 07:41:28;321902.00;1.07;555.57;0.00;0.00;0.62;;;;;14.90;1.00;;;;;;2264240;61;1064;-86
2022/10/04 07:44:02;501256.00;1.67;863.99;30180.00;0.10;52.89;;;;;14.60;1.00;;;;;;2264158;61;1425;-87
2022/10/04 07:46:44;509999.00;1.70;879.04;0.00;0.00;0.62;;;;;15.00;1.00;;;;;;2264243;61;1013;-87
2022/10/04 07:49:14;378648.00;1.26;653.10;0.00;0.00;0.62;;;;;15.10;1.00;;;;;;2264130;61;1014;-87
2022/10/04 07:52:01;564481.00;1.88;972.93;0.00;0.00;0.62;;;;;15.20;1.00;;;;;;2264114;61;924;-88
2022/10/04 07:54:38;535527.00;1.79;923.01;0.00;0.00;0.62;;;;;15.30;1.00;;;;;;2264181;61;1385;-87
2022/10/04 07:59:45;772475.00;2.57;1333.16;0.00;0.00;0.62;;;;;16.00;1.00;;;;;;2270204;61;1963;-87
2022/10/04 08:02:31;480055.00;1.60;827.49;0.00;0.00;0.62;;;;;16.20;1.00;;;;;;2268182;61;1433;-87
2022/10/04 08:05:16;682375.00;2.27;1176.69;0.00;0.00;0.62;;;;;16.50;1.00;;;;;;2268143;61;1282;-87
2022/10/04 08:08:08;649305.00;2.16;1119.43;0.00;0.00;0.62;;;;;16.60;1.00;;;;;;2268201;61;1526;-87
2022/10/04 08:10:45;783065.00;2.61;1351.60;51742.00;0.17;90.20;;;;;16.50;1.00;;;;;;2268209;61;1061;-88
2022/10/04 08:13:26;905542.00;3.02;1565.86;11044.00;0.04;19.76;;;;;16.50;1.00;;;;;;2268085;61;1484;-87
2022/10/04 08:16:01;932839.00;3.11;1613.87;163551.00;0.55;283.16;;;;;16.70;1.00;;;;;;2268092;61;1427;-88
2022/10/04 08:18:43;528104.00;1.76;910.23;0.00;0.00;0.62;;;;;16.50;1.00;;;;;;2268101;61;2005;-87
2022/10/04 08:21:17;435547.00;1.45;750.92;0.00;0.00;0.62;;;;;16.30;1.00;;;;;;2268190;61;929;-86
2022/10/04 08:24:16;566367.00;1.89;976.18;47043.00;0.16;82.07;;;;;16.40;1.00;;;;;;2268123;61;1505;-87
2022/10/04 08:27:00;587009.00;1.96;1011.79;0.00;0.00;0.62;;;;;16.40;1.00;;;;;;2268097;61;1477;-88
2022/10/04 08:29:59;454836.00;1.52;784.10;59884.00;0.20;104.28;;;;;16.40;1.00;;;;;;2268089;61;988;-87
2022/10/04 08:32:42;621055.00;2.07;1070.59;0.00;0.00;0.62;;;;;15.90;1.00;;;;;;2268075;61;1024;-87
2022/10/04 08:35:28;438500.00;1.46;756.00;0.00;0.00;0.62;;;;;15.80;1.00;;;;;;2268098;61;1032;-86
2022/10/04 08:38:20;519420.00;1.73;895.27;0.00;0.00;0.62;;;;;16.00;1.00;;;;;;2268770;61;1114;-85
2022/10/04 08:41:24;409240.00;1.36;705.69;0.00;0.00;0.62;;;;;16.10;1.00;;;;;;2268748;61;1285;-87
2022/10/04 08:44:24;664677.00;2.22;1146.04;71620.00;0.24;124.56;;;;;16.40;1.00;;;;;;2268672;61;1289;-87
2022/10/04 08:47:27;658179.00;2.19;1134.79;68069.00;0.23;118.42;;;;;16.10;1.00;;;;;;2268715;61;1132;-87
2022/10/04 08:50:31;694901.00;2.32;1198.40;92508.00;0.31;160.64;;;;;16.10;1.00;;;;;;2268798;61;1066;-86
2022/10/04 08:53:28;389253.00;1.30;671.33;0.00;0.00;0.62;;;;;16.20;1.00;;;;;;2266607;61;1466;-87
2022/10/04 08:56:13;606432.00;2.02;1045.33;0.00;0.00;0.62;;;;;16.50;1.00;;;;;;2268360;61;1090;-87
2022/10/04 08:59:25;633518.00;2.11;1092.13;67740.00;0.23;117.85;;;;;16.50;1.00;;;;;;2268652;61;1920;-87
2022/10/04 09:02:16;576367.00;1.92;993.43;0.00;0.00;0.62;;;;;16.10;1.00;;;;;;2261783;61;1491;-87
2022/10/04 09:05:28;530916.00;1.77;915.07;58982.00;0.20;102.72;;;;;16.70;1.00;;;;;;2268720;61;1457;-87
2022/10/04 09:08:28;518143.00;1.73;893.07;0.00;0.00;0.62;;;;;16.20;1.00;;;;;;2261854;61;1313;-87
2022/10/04 09:11:18;662697.00;2.21;1142.61;62757.00;0.21;109.24;;;;;16.80;1.00;;;;;;2268652;61;1159;-87
2022/10/04 09:14:07;320157.00;1.07;552.57;0.00;0.00;0.62;;;;;17.20;1.00;;;;;;2268668;61;1470;-88
2022/10/04 09:16:46;304492.00;1.01;525.64;0.00;0.00;0.62;;;;;17.70;1.00;;;;;;2268644;61;959;-85
2022/10/04 09:19:22;472405.00;1.57;814.33;27613.00;0.09;48.45;;;;;17.90;1.00;;;;;;2268629;61;1920;-86
2022/10/04 09:22:16;400453.00;1.33;690.58;17616.00;0.06;31.14;;;;;17.80;1.00;;;;;;2268592;61;1470;-84
2022/10/04 09:25:20;593311.00;1.98;1022.67;0.00;0.00;0.62;;;;;17.60;1.00;;;;;;2268583;61;1453;-87
2022/10/04 09:28:23;485819.00;1.62;837.41;0.00;0.00;0.62;;;;;17.50;1.00;;;;;;2268696;61;1006;-86
2022/10/04 09:31:09;736254.00;2.45;1270.17;82685.00;0.28;143.68;;;;;17.60;1.00;;;;;;2268618;61;1042;-86
2022/10/04 09:33:55;792919.00;2.64;1368.78;89313.00;0.30;155.12;;;;;17.80;1.00;;;;;;2268410;61;1653;-88
2022/10/04 20:21:13;485520.00;1.62;836.90;0.00;0.00;0.62;;;;;18.30;1.00;;;;;;2272066;61;1924;-86
2022/10/04 20:27:05;478660.00;1.60;825.09;0.00;0.00;0.62;;;;;17.90;1.00;;;;;;2272146;61;1308;-88
2022/10/04 20:30:06;580856.00;1.94;1001.18;0.00;0.00;0.62;;;;;18.20;1.00;;;;;;2272136;61;1121;-87
2022/10/04 20:32:56;409223.00;1.36;705.66;0.00;0.00;0.62;;;;;18.20;1.00;;;;;;2272489;61;1612;-87
2022/10/04 20:35:59;941828.00;3.14;1629.71;112831.00;0.38;195.71;;;;;18.20;1.00;;;;;;2272771;61;1250;-86
2022/10/04 20:38:53;913651.00;3.05;1580.11;0.00;0.00;0.62;;;;;18.20;1.00;;;;;;2272813;61;1684;-86
2022/10/04 20:42:21;775199.00;2.58;1337.90;67641.00;0.23;117.68;;;;;18.20;1.00;;;;;;2272850;61;1586;-86
2022/10/04 20:44:59;555152.00;1.85;956.84;0.00;0.00;0.62;;;;;18.40;1.00;;;;;;2268831;61;1412;-87
2022/10/04 20:47:37;422862.00;1.41;729.11;0.00;0.00;0.62;;;;;18.40;1.00;;;;;;2272773;61;1051;-86
2022/10/04 20:50:15;755732.00;2.52;1304.03;0.00;0.00;0.62;;;;;18.50;1.00;;;;;;2272780;61;1022;-86
2022/10/04 20:52:47;781057.00;2.60;1348.11;0.00;0.00;0.62;;;;;18.40;1.00;;;;;;2272673;61;1296;-86
2022/10/04 20:55:24;1081974.00;3.61;1878.22;42859.00;0.14;74.83;;;;;18.40;1.00;;;;;;2272746;61;1283;-86
2022/10/04 20:57:51;902349.00;3.01;1560.25;41990.00;0.14;73.33;;;;;18.30;1.00;;;;;;2272786;61;1028;-86
2022/10/04 21:00:20;753993.00;2.51;1301.00;0.00;0.00;0.62;;;;;18.20;1.00;;;;;;2272742;61;1911;-85
2022/10/04 21:02:48;881654.00;2.94;1523.92;84371.00;0.28;146.59;;;;;17.80;1.00;;;;;;2272694;61;1376;-87
2022/10/04 21:05:22;561517.00;1.87;967.82;0.00;0.00;0.62;;;;;17.60;1.00;;;;;;2272617;61;1026;-88
2022/10/04 21:07:49;722188.00;2.41;1245.74;63164.00;0.21;109.95;;;;;17.70;1.00;;;;;;2272762;61;933;-87
2022/10/04 21:10:19;614723.00;2.05;1059.65;48862.00;0.16;85.22;;;;;17.50;1.00;;;;;;2272725;61;1086;-85
2022/10/04 21:12:48;768388.00;2.56;1326.05;157322.00;0.52;272.43;;;;;17.70;1.00;;;;;;2272680;61;1478;-87
2022/10/04 21:15:22;279051.00;0.93;481.91;0.00;0.00;0.62;;;;;17.90;1.00;;;;;;2272681;61;1104;-86
2022/10/04 21:18:03;573610.00;1.91;988.67;0.00;0.00;0.62;;;;;17.80;1.00;;;;;;2272649;61;1139;-86
2022/10/04 21:20:44;417731.00;1.39;720.29;0.00;0.00;0.62;;;;;17.60;1.00;;;;;;2272628;61;1970;-86
2022/10/04 21:23:20;566729.00;1.89;976.80;0.00;0.00;0.62;;;;;17.70;1.00;;;;;;2272657;61;1363;-86
2022/10/04 21:25:48;563671.00;1.88;971.53;0.00;0.00;0.62;;;;;17.80;1.00;;;;;;2272639;61;1609;-86
2022/10/04 21:28:34;630219.00;2.10;1086.43;0.00;0.00;0.62;;;;;18.00;1.00;;;;;;2272572;61;984;-87
2022/10/04 21:31:02;821349.00;2.74;1418.38;38958.00;0.13;68.09;;;;;18.00;1.00;;;;;;2272643;61;1220;-86
2022/10/04 21:33:32;315156.00;1.05;543.97;0.00;0.00;0.62;;;;;18.10;1.00;;;;;;2272587;61;1381;-86